Time;durP1;ratioP1;P1;durP2;ratioP2;P2;SDS_P1;SDS_P2;PMS_P1;PMS_P2;Temp;Humidity;BMP_temperature;BMP_pressure;BME280_temperature;BME280_humidity;BME280_pressure;Samples;Min_cycle;Max_cycle;Signal;HPM_P1;HPM_P2
2022/08/20 00:00:55;;;;;;;13.90;9.20;;;;;;;22.16;70.47;96373.58;108598;1268;22546;-79
2022/08/20 00:03:27;;;;;;;13.00;8.10;;;;;;;22.15;70.65;96378.98;108551;1268;22601;-79
2022/08/20 00:05:58;;;;;;;13.10;8.90;;;;;;;22.16;70.79;96384.70;108592;1268;24299;-79
2022/08/20 00:08:28;;;;;;;11.80;8.50;;;;;;;22.21;71.20;96389.56;108503;1267;39215;-78
2022/08/20 00:10:58;;;;;;;11.80;8.50;;;;;;;22.20;71.09;96390.63;108563;1268;22654;-79
2022/08/20 00:13:29;;;;;;;12.90;8.10;;;;;;;22.19;71.25;96385.98;108612;1268;23774;-80
2022/08/20 00:15:58;;;;;;;10.80;8.00;;;;;;;22.22;71.38;96385.34;108592;1268;22686;-79
2022/08/20 00:18:28;;;;;;;13.90;9.80;;;;;;;22.26;71.69;96383.42;108482;1268;29743;-79
2022/08/20 00:20:57;;;;;;;11.40;8.40;;;;;;;22.28;71.81;96381.29;108586;1268;22542;-80
2022/08/20 00:23:26;;;;;;;11.30;8.40;;;;;;;22.28;71.90;96385.67;108614;1268;23521;-79
2022/08/20 00:25:54;;;;;;;13.10;9.00;;;;;;;22.26;72.03;96382.10;108575;1268;23781;-80
2022/08/20 00:28:23;;;;;;;12.40;8.60;;;;;;;22.26;71.78;96376.53;108550;1268;25815;-79
2022/08/20 00:30:51;;;;;;;15.60;9.00;;;;;;;22.25;71.71;96367.89;108568;1268;22554;-80
2022/08/20 00:33:22;;;;;;;11.90;9.20;;;;;;;22.22;71.77;96364.44;108566;1268;23642;-79
2022/08/20 00:35:53;;;;;;;11.70;8.20;;;;;;;22.18;71.96;96361.04;108456;1267;23942;-79
2022/08/20 00:38:22;;;;;;;12.40;9.00;;;;;;;22.13;72.12;96358.64;108393;1268;73074;-80
2022/08/20 00:40:54;;;;;;;15.10;9.30;;;;;;;22.05;72.34;96355.30;108430;1268;22604;-80
2022/08/20 00:43:33;;;;;;;11.20;8.50;;;;;;;21.96;72.60;96352.08;108625;1268;22556;-80
2022/08/20 00:46:05;;;;;;;12.80;8.70;;;;;;;21.94;72.66;96341.52;108586;1267;22665;-80
2022/08/20 00:48:37;;;;;;;12.10;8.40;;;;;;;21.88;72.84;96342.89;108544;1268;24257;-80
2022/08/20 00:51:10;;;;;;;11.90;8.50;;;;;;;21.74;73.07;96347.41;108600;1268;24099;-80
2022/08/20 00:53:40;;;;;;;12.40;8.40;;;;;;;21.63;73.19;96340.55;108559;1268;22598;-79
2022/08/20 00:56:10;;;;;;;8.60;7.70;;;;;;;21.56;73.19;96338.80;108606;1268;22560;-79
2022/08/20 00:58:39;;;;;;;;;;;;;;;21.47;73.56;96333.39;108489;1265;51821;-79
2022/08/20 01:01:08;;;;;;;9.90;8.10;;;;;;;21.36;74.00;96337.09;108592;1268;22533;-80
2022/08/20 01:03:37;;;;;;;9.30;7.70;;;;;;;21.24;74.34;96334.98;108429;1268;22806;-79
2022/08/20 01:06:08;;;;;;;12.80;8.60;;;;;;;21.15;74.88;96341.02;108587;1266;22471;-79
2022/08/20 01:08:37;;;;;;;13.70;8.20;;;;;;;21.06;75.56;96354.83;108506;1268;28187;-79
2022/08/20 01:11:08;;;;;;;12.80;8.10;;;;;;;21.03;75.95;96353.23;108557;1268;22572;-79
2022/08/20 01:13:40;;;;;;;12.50;7.50;;;;;;;21.14;75.70;96348.70;108552;1268;22654;-79
2022/08/20 01:16:15;;;;;;;10.90;7.50;;;;;;;21.28;75.32;96353.33;108573;1268;23871;-79
2022/08/20 01:18:47;;;;;;;11.00;7.40;;;;;;;21.36;75.01;96355.74;108491;1265;28571;-79
2022/08/20 01:21:21;;;;;;;14.00;7.70;;;;;;;21.45;74.65;96359.70;108590;1268;22540;-79
2022/08/20 01:23:59;;;;;;;12.10;7.50;;;;;;;21.51;74.26;96362.81;108536;1268;22559;-79
2022/08/20 01:26:35;;;;;;;12.40;7.30;;;;;;;21.55;73.68;96362.91;108564;1267;25363;-79
2022/08/20 01:29:08;;;;;;;12.20;7.70;;;;;;;21.65;73.35;96365.55;108530;1268;27205;-79
2022/08/20 01:31:38;;;;;;;11.90;7.10;;;;;;;21.71;72.98;96366.86;108591;1268;22564;-79
2022/08/20 01:34:10;;;;;;;13.90;7.80;;;;;;;21.76;72.87;96369.26;108570;1268;24262;-79
2022/08/20 01:36:42;;;;;;;14.00;7.50;;;;;;;21.79;72.98;96378.64;108457;1267;24081;-79
2022/08/20 01:39:15;;;;;;;12.70;8.10;;;;;;;21.80;72.83;96389.84;108557;1266;26392;-79
2022/08/20 01:41:59;;;;;;;15.10;8.40;;;;;;;21.79;72.88;96394.23;108540;1268;22529;-79
2022/08/20 01:44:29;;;;;;;13.00;7.70;;;;;;;21.80;72.91;96392.77;108574;1268;22650;-79
2022/08/20 01:47:07;;;;;;;11.30;7.30;;;;;;;21.80;72.96;96383.59;108595;1266;22549;-79
2022/08/20 01:49:40;;;;;;;11.30;7.50;;;;;;;21.78;72.73;96380.85;108472;1268;27260;-79
2022/08/20 01:52:10;;;;;;;11.30;8.10;;;;;;;21.70;72.80;96384.27;108560;1266;22838;-79
2022/08/20 01:54:38;;;;;;;8.50;7.30;;;;;;;21.68;73.01;96387.00;108392;1268;22670;-79
2022/08/20 01:57:13;;;;;;;12.60;8.00;;;;;;;21.66;72.94;96389.70;108538;1268;22490;-79
2022/08/20 01:59:42;;;;;;;12.10;7.80;;;;;;;21.67;72.92;96386.89;108469;1265;35865;-79
2022/08/20 02:02:11;;;;;;;8.70;7.00;;;;;;;21.68;72.84;96385.90;108608;1266;25409;-79
2022/08/20 02:04:40;;;;;;;12.40;7.90;;;;;;;21.65;73.01;96374.36;108554;1268;23412;-79
2022/08/20 02:07:14;;;;;;;10.10;8.40;;;;;;;21.60;73.07;96368.02;108533;1268;22469;-79
2022/08/20 02:09:43;;;;;;;10.70;8.70;;;;;;;21.47;73.23;96373.23;108465;1268;24323;-79
2022/08/20 02:12:13;;;;;;;10.10;7.60;;;;;;;21.33;73.47;96381.55;108539;1265;22548;-79
2022/08/20 02:14:43;;;;;;;16.00;8.80;;;;;;;21.03;73.98;96389.11;108597;1268;22516;-79
2022/08/20 02:17:13;;;;;;;9.60;7.60;;;;;;;20.83;74.72;96393.20;108548;1268;22474;-79
2022/08/20 02:19:46;;;;;;;10.20;7.60;;;;;;;20.75;75.18;96395.95;108378;1267;27420;-79
2022/08/20 02:22:19;;;;;;;9.10;7.40;;;;;;;20.75;75.47;96394.34;108441;1267;22531;-79
2022/08/20 02:24:48;;;;;;;11.50;8.10;;;;;;;20.85;75.79;96391.77;108503;1268;22552;-79
2022/08/20 02:27:17;;;;;;;9.70;7.60;;;;;;;20.91;75.92;96397.69;108568;1268;22681;-79
2022/08/20 02:29:46;;;;;;;13.50;7.90;;;;;;;20.89;75.78;96402.96;108507;1268;24205;-79
2022/08/20 02:32:14;;;;;;;13.20;8.40;;;;;;;20.78;76.11;96403.78;108541;1268;22486;-79
2022/08/20 02:34:43;;;;;;;14.10;8.40;;;;;;;20.77;76.23;96407.60;108540;1268;22479;-79
2022/08/20 02:37:13;;;;;;;10.30;7.10;;;;;;;20.81;76.41;96405.45;108541;1268;25411;-79
2022/08/20 02:39:41;;;;;;;11.00;7.90;;;;;;;20.75;76.50;96407.65;108463;1267;36089;-79
2022/08/20 02:42:11;;;;;;;12.80;8.20;;;;;;;20.69;76.77;96403.95;108573;1268;23236;-79
2022/08/20 02:44:39;;;;;;;10.40;7.40;;;;;;;20.67;76.90;96398.90;108548;1268;23849;-79
2022/08/20 02:47:07;;;;;;;11.00;7.40;;;;;;;20.70;76.86;96399.73;108544;1267;22573;-79
2022/08/20 02:49:38;;;;;;;14.10;8.10;;;;;;;20.59;77.14;96405.57;108462;1268;25430;-79
2022/08/20 02:52:07;;;;;;;16.10;8.90;;;;;;;20.53;77.44;96400.16;108437;1267;22687;-79
2022/08/20 02:54:36;;;;;;;11.40;7.90;;;;;;;20.57;77.55;96391.51;108543;1268;22534;-79
2022/08/20 02:57:05;;;;;;;11.30;7.90;;;;;;;20.70;77.53;96385.83;108506;1268;23877;-79
2022/08/20 02:59:33;;;;;;;10.90;7.70;;;;;;;20.82;77.51;96380.79;108483;1268;22565;-79
2022/08/20 03:02:02;;;;;;;10.80;8.00;;;;;;;20.81;77.31;96377.14;108506;1268;22643;-79
2022/08/20 03:04:30;;;;;;;12.70;8.00;;;;;;;20.73;77.48;96375.19;108554;1268;22540;-79
2022/08/20 03:06:59;;;;;;;10.30;7.70;;;;;;;20.73;77.66;96367.96;108541;1268;24040;-79
2022/08/20 03:09:28;;;;;;;9.00;7.90;;;;;;;20.79;77.66;96359.77;108317;1268;32340;-79
2022/08/20 03:11:56;;;;;;;10.50;8.20;;;;;;;20.79;77.61;96358.84;108553;1268;23791;-79
2022/08/20 03:14:24;;;;;;;11.20;7.80;;;;;;;20.78;77.74;96361.52;108536;1268;23896;-79
2022/08/20 03:16:53;;;;;;;10.90;8.50;;;;;;;20.71;77.81;96353.66;108395;1267;23892;-79
2022/08/20 03:19:21;;;;;;;11.10;8.10;;;;;;;20.64;78.00;96346.50;108439;1268;34875;-79
2022/08/20 03:21:50;;;;;;;11.00;8.20;;;;;;;20.63;78.20;96339.48;108567;1268;22534;-79
2022/08/20 03:24:19;;;;;;;10.20;7.80;;;;;;;20.64;78.12;96343.03;108548;1267;22530;-79
2022/08/20 03:26:48;;;;;;;10.90;8.00;;;;;;;20.66;78.06;96340.90;108528;1268;22479;-79
2022/08/20 03:29:16;;;;;;;10.50;8.00;;;;;;;20.63;78.18;96343.32;108482;1268;36226;-79
2022/08/20 03:31:45;;;;;;;11.20;8.10;;;;;;;20.55;78.26;96339.52;108558;1268;22680;-79
2022/08/20 03:34:13;;;;;;;11.30;7.90;;;;;;;20.51;78.43;96335.55;108548;1268;25257;-79
2022/08/20 03:36:41;;;;;;;10.40;7.70;;;;;;;20.50;78.76;96335.69;108502;1268;22494;-79
2022/08/20 03:39:12;;;;;;;12.70;8.30;;;;;;;20.55;78.68;96341.66;108331;1268;32353;-79
2022/08/20 03:41:41;;;;;;;;;;;;;;;20.62;78.73;96337.05;108482;1268;23816;-79
2022/08/20 03:44:10;;;;;;;14.70;8.10;;;;;;;20.69;78.96;96335.38;108507;1268;22567;-79
2022/08/20 03:46:38;;;;;;;12.20;8.60;;;;;;;20.65;78.77;96337.11;108519;1268;22562;-79
2022/08/20 03:49:07;;;;;;;10.00;7.90;;;;;;;20.58;78.89;96336.59;108485;1268;29294;-79
2022/08/20 03:51:35;;;;;;;9.30;7.60;;;;;;;20.61;79.14;96334.49;108545;1268;22545;-79
2022/08/20 03:54:04;;;;;;;11.20;8.20;;;;;;;20.65;79.19;96333.06;108535;1267;25419;-79
2022/08/20 03:56:32;;;;;;;10.30;8.70;;;;;;;20.74;79.26;96337.97;108567;1267;22551;-79
2022/08/20 03:59:00;;;;;;;10.60;8.20;;;;;;;20.72;79.20;96337.14;108374;1267;25206;-79
2022/08/20 04:01:30;;;;;;;14.20;8.70;;;;;;;20.66;79.45;96334.98;108418;1267;25376;-79
2022/08/20 04:03:58;;;;;;;10.90;8.40;;;;;;;20.60;79.90;96336.34;108429;1267;23981;-79
2022/08/20 04:06:28;;;;;;;12.40;8.70;;;;;;;20.64;80.04;96337.33;108523;1268;22484;-79
2022/08/20 04:08:56;;;;;;;11.80;8.80;;;;;;;20.75;80.29;96341.52;108450;1267;40622;-79
2022/08/20 04:11:24;;;;;;;10.40;8.70;;;;;;;20.88;80.15;96341.42;108541;1267;24262;-79
2022/08/20 04:13:53;;;;;;;11.50;9.00;;;;;;;21.01;80.42;96337.79;108505;1268;25439;-79
2022/08/20 04:16:21;;;;;;;8.80;7.80;;;;;;;21.01;80.40;96334.71;108557;1268;22603;-79
2022/08/20 04:18:50;;;;;;;11.00;8.80;;;;;;;21.06;80.35;96327.19;108375;1267;23411;-79
2022/08/20 04:21:18;;;;;;;13.50;8.60;;;;;;;21.14;80.39;96327.73;108428;1268;22527;-79
2022/08/20 04:23:46;;;;;;;11.30;8.20;;;;;;;21.16;80.25;96326.63;108531;1267;22467;-79
2022/08/20 04:26:15;;;;;;;11.20;8.90;;;;;;;21.14;80.31;96331.90;108510;1268;22637;-79
2022/08/20 04:28:43;;;;;;;12.50;8.00;;;;;;;21.12;80.57;96329.49;108378;1267;26017;-79
2022/08/20 04:31:13;;;;;;;11.60;9.20;;;;;;;21.15;80.61;96326.63;108466;1267;22574;-79
2022/08/20 04:33:42;;;;;;;11.60;8.90;;;;;;;21.20;80.99;96322.70;108528;1268;22617;-79
2022/08/20 04:36:12;;;;;;;14.10;9.30;;;;;;;21.27;81.05;96316.40;108585;1268;22623;-80
2022/08/20 04:38:41;;;;;;;10.40;8.70;;;;;;;21.37;81.18;96311.67;108497;1268;30023;-79
2022/08/20 04:41:09;;;;;;;11.60;8.70;;;;;;;21.52;81.33;96307.27;108437;1268;22557;-79
2022/08/20 04:43:38;;;;;;;11.40;8.30;;;;;;;21.68;81.19;96307.05;108504;1268;25377;-79
2022/08/20 04:46:09;;;;;;;11.60;9.00;;;;;;;21.85;81.19;96307.98;108555;1268;23726;-79
2022/08/20 04:48:38;;;;;;;14.00;9.50;;;;;;;21.90;80.58;96319.64;108498;1268;25889;-79
2022/08/20 04:51:09;;;;;;;12.00;8.80;;;;;;;21.71;80.26;96316.27;108545;1268;22626;-79
2022/08/20 04:53:38;;;;;;;12.70;9.50;;;;;;;21.55;80.33;96319.36;108463;1267;23854;-79
2022/08/20 04:56:07;;;;;;;12.70;10.10;;;;;;;21.49;80.67;96317.94;108576;1265;22563;-79
2022/08/20 04:58:37;;;;;;;14.20;9.40;;;;;;;21.53;80.97;96318.02;108486;1268;26726;-79
2022/08/20 05:01:08;;;;;;;10.50;9.40;;;;;;;21.69;81.26;96310.06;108424;1268;22543;-79
2022/08/20 05:03:38;;;;;;;13.90;10.60;;;;;;;21.90;81.23;96309.84;108528;1267;24225;-79
2022/08/20 05:06:08;;;;;;;14.90;10.50;;;;;;;22.26;81.35;96308.33;108554;1267;22591;-79
2022/08/20 05:08:37;;;;;;;;;;;;;;;23.04;81.41;96311.98;108515;1268;24730;-79
2022/08/20 05:11:08;;;;;;;12.60;9.20;;;;;;;23.98;80.69;96311.95;108564;1268;23350;-79
2022/08/20 05:13:37;;;;;;;12.90;9.10;;;;;;;25.04;78.88;96311.65;108572;1266;22613;-79
2022/08/20 05:16:06;;;;;;;13.30;8.60;;;;;;;25.98;76.99;96310.23;108536;1267;22574;-80
2022/08/20 05:18:35;;;;;;;13.90;8.70;;;;;;;26.82;74.27;96308.90;108481;1267;25587;-79
2022/08/20 05:21:05;;;;;;;11.40;8.10;;;;;;;27.04;71.73;96309.20;108441;1267;22616;-80
2022/08/20 05:23:35;;;;;;;12.70;8.40;;;;;;;27.54;70.99;96306.23;108439;1268;24358;-79
2022/08/20 05:26:06;;;;;;;12.00;8.20;;;;;;;28.38;69.72;96303.48;108525;1267;22647;-80
2022/08/20 05:28:37;;;;;;;12.80;7.80;;;;;;;28.70;66.82;96296.14;108382;1267;29500;-80
2022/08/20 05:31:08;;;;;;;11.70;7.50;;;;;;;27.96;65.17;96295.90;108447;1267;22473;-80
2022/08/20 05:33:38;;;;;;;12.40;8.40;;;;;;;26.90;64.87;96289.61;108517;1268;22471;-80
2022/08/20 05:36:08;;;;;;;9.50;8.10;;;;;;;26.06;65.81;96288.61;108514;1266;25347;-80
2022/08/20 05:38:37;;;;;;;9.70;7.80;;;;;;;25.53;67.51;96277.53;108411;1268;25582;-80
2022/08/20 05:41:06;;;;;;;11.70;7.80;;;;;;;25.44;68.71;96267.80;108570;1268;25840;-80
2022/08/20 05:43:35;;;;;;;10.80;8.50;;;;;;;25.66;69.28;96263.31;108469;1267;22542;-80
2022/08/20 05:46:04;;;;;;;9.00;8.00;;;;;;;26.00;68.67;96261.75;108543;1268;22582;-80
2022/08/20 05:48:34;;;;;;;11.60;7.80;;;;;;;26.26;67.85;96266.65;108487;1267;30534;-80
2022/08/20 05:51:03;;;;;;;11.50;7.80;;;;;;;26.28;67.21;96268.27;108461;1268;22533;-80
2022/08/20 05:53:31;;;;;;;11.60;8.40;;;;;;;26.27;66.82;96272.79;108526;1267;22492;-80
2022/08/20 05:56:00;;;;;;;12.10;8.20;;;;;;;26.28;66.55;96276.98;108520;1268;24373;-80
2022/08/20 05:58:31;;;;;;;13.50;8.10;;;;;;;26.33;66.71;96277.85;108444;1268;30514;-80
2022/08/20 06:01:00;;;;;;;10.30;7.90;;;;;;;26.36;66.08;96273.13;108510;1267;22666;-80
2022/08/20 06:06:16;;;;;;;13.30;8.80;;;;;;;26.72;65.91;96273.33;108506;1267;22611;-80
2022/08/20 06:08:44;;;;;;;11.50;8.60;;;;;;;26.97;65.83;96280.52;108448;1267;44015;-80
2022/08/20 06:11:13;;;;;;;12.90;8.80;;;;;;;27.24;64.59;96285.73;108548;1266;25879;-80
2022/08/20 06:13:41;;;;;;;9.70;8.00;;;;;;;27.41;63.77;96289.17;108458;1267;25254;-80
2022/08/20 06:16:10;;;;;;;12.00;8.40;;;;;;;27.73;63.42;96292.52;108545;1268;22464;-80
2022/08/20 06:18:38;;;;;;;13.30;7.60;;;;;;;28.37;62.47;96291.76;108460;1268;30896;-80
2022/08/20 06:21:07;;;;;;;10.40;7.70;;;;;;;28.65;61.04;96296.19;108548;1267;23035;-80
2022/08/20 06:23:35;;;;;;;12.40;8.00;;;;;;;28.83;59.88;96295.48;108565;1268;22651;-80
2022/08/20 06:26:08;;;;;;;12.30;7.70;;;;;;;28.86;58.70;96296.94;108533;1267;22534;-80
2022/08/20 06:28:36;;;;;;;10.70;7.60;;;;;;;28.75;57.92;96297.73;108414;1268;46325;-80
2022/08/20 06:31:06;;;;;;;13.00;8.20;;;;;;;28.58;57.48;96302.33;108550;1267;25245;-80
2022/08/20 06:33:35;;;;;;;12.40;8.00;;;;;;;28.40;57.93;96302.63;108567;1267;24347;-80
2022/08/20 06:36:05;;;;;;;13.80;8.10;;;;;;;28.22;57.33;96304.48;108470;1267;22554;-80
2022/08/20 06:38:34;;;;;;;10.60;8.10;;;;;;;27.78;57.61;96301.93;108445;1267;32833;-80
2022/08/20 06:41:03;;;;;;;10.20;8.00;;;;;;;27.62;58.28;96306.44;108509;1268;23304;-80
2022/08/20 06:43:32;;;;;;;12.60;8.20;;;;;;;27.58;58.36;96304.50;108526;1268;23244;-80
2022/08/20 06:46:02;;;;;;;9.80;8.00;;;;;;;27.46;58.56;96303.00;108538;1268;23815;-80
2022/08/20 06:48:30;;;;;;;9.40;7.50;;;;;;;27.39;58.82;96300.77;108512;1267;26845;-80
2022/08/20 06:51:03;;;;;;;11.70;7.70;;;;;;;27.20;58.94;96294.46;108536;1268;22535;-81
2022/08/20 06:53:32;;;;;;;11.20;8.20;;;;;;;27.06;59.07;96294.13;108516;1268;24154;-81
2022/08/20 06:56:05;;;;;;;11.40;7.90;;;;;;;26.98;59.54;96293.00;108458;1267;22481;-81
2022/08/20 06:58:34;;;;;;;10.80;8.70;;;;;;;26.98;59.73;96293.02;108414;1267;29692;-81
2022/08/20 07:01:02;;;;;;;11.00;8.40;;;;;;;26.89;59.04;96292.80;108544;1267;23265;-81
2022/08/20 07:03:31;;;;;;;11.30;8.50;;;;;;;26.72;59.35;96288.25;108588;1268;22482;-81
2022/08/20 07:05:59;;;;;;;10.30;8.20;;;;;;;26.61;59.24;96286.71;108531;1267;23727;-81
2022/08/20 07:08:28;;;;;;;13.90;8.80;;;;;;;26.49;59.66;96285.40;108464;1267;24036;-80
2022/08/20 07:10:57;;;;;;;10.40;8.30;;;;;;;26.52;60.18;96282.60;108525;1268;23723;-80
2022/08/20 07:13:25;;;;;;;11.00;8.10;;;;;;;26.88;60.28;96284.95;108471;1267;24224;-71
2022/08/20 07:15:55;;;;;;;12.60;8.40;;;;;;;27.24;59.27;96290.24;108532;1268;22549;-73
2022/08/20 07:18:24;;;;;;;14.90;8.70;;;;;;;27.05;58.81;96290.14;108424;1268;27687;-73
2022/08/20 07:20:55;;;;;;;16.80;8.20;;;;;;;27.13;59.68;96290.58;108546;1268;22650;-75
2022/08/20 07:23:25;;;;;;;12.30;8.00;;;;;;;27.82;59.79;96290.52;108554;1268;22651;-74
2022/08/20 07:25:55;;;;;;;11.60;8.60;;;;;;;28.54;59.36;96282.88;108443;1268;22813;-74
2022/08/20 07:28:27;;;;;;;10.70;8.20;;;;;;;29.07;58.61;96276.52;108450;1268;28807;-74
2022/08/20 07:33:44;;;;;;;9.40;7.60;;;;;;;30.63;57.42;96283.98;108571;1268;23912;-73
2022/08/20 07:36:13;;;;;;;9.20;7.50;;;;;;;31.86;54.81;96289.41;108545;1268;22474;-72
2022/08/20 07:38:44;;;;;;;11.20;7.70;;;;;;;31.61;52.63;96289.94;108436;1265;36468;-77
2022/08/20 07:41:14;;;;;;;10.70;7.80;;;;;;;31.04;52.23;96290.64;108510;1267;24265;-76
2022/08/20 07:43:44;;;;;;;11.80;7.50;;;;;;;30.31;51.93;96289.52;108532;1268;22489;-76
2022/08/20 07:46:15;;;;;;;10.70;8.30;;;;;;;29.65;52.60;96286.93;108543;1265;22591;-77
2022/08/20 07:48:45;;;;;;;11.80;7.90;;;;;;;29.20;52.94;96282.08;108451;1267;25252;-75
2022/08/20 07:51:16;;;;;;;11.80;7.40;;;;;;;29.22;53.69;96281.45;108532;1268;22552;-77
2022/08/20 07:53:46;;;;;;;12.60;8.30;;;;;;;29.37;54.11;96275.73;108501;1268;22721;-75
2022/08/20 07:56:18;;;;;;;10.20;7.10;;;;;;;29.82;53.93;96275.55;108523;1267;22983;-75
2022/08/20 07:58:49;;;;;;;9.90;7.40;;;;;;;30.01;52.76;96272.39;108419;1267;42364;-74
2022/08/20 08:01:21;;;;;;;10.30;7.90;;;;;;;29.67;52.38;96270.36;108501;1267;25096;-72
2022/08/20 08:03:50;;;;;;;11.80;7.60;;;;;;;29.73;52.79;96267.17;108541;1268;22560;-73
2022/08/20 08:06:20;;;;;;;9.60;7.70;;;;;;;29.88;53.35;96269.45;108523;1268;22568;-74
2022/08/20 08:08:49;;;;;;;9.00;7.40;;;;;;;29.91;53.07;96274.33;108470;1267;25078;-75
2022/08/20 08:11:18;;;;;;;9.60;8.00;;;;;;;29.93;53.22;96274.20;108544;1268;24259;-75
2022/08/20 08:13:47;;;;;;;12.90;8.40;;;;;;;30.10;52.77;96278.98;108533;1267;23468;-75
2022/08/20 08:16:18;;;;;;;11.60;7.90;;;;;;;30.16;52.34;96286.02;108529;1268;23993;-75
2022/08/20 08:18:49;;;;;;;13.50;7.60;;;;;;;30.38;52.73;96281.77;108442;1267;30932;-76
2022/08/20 08:21:21;;;;;;;9.30;7.50;;;;;;;31.31;52.47;96285.58;108537;1268;22476;-75
2022/08/20 08:23:50;;;;;;;9.70;6.90;;;;;;;32.79;51.14;96286.10;108505;1266;22644;-76
2022/08/20 08:26:21;;;;;;;11.90;7.10;;;;;;;34.22;49.42;96283.00;108531;1268;23285;-76
2022/08/20 08:28:50;;;;;;;11.70;7.00;;;;;;;35.50;47.19;96279.25;108456;1267;30283;-79
2022/08/20 08:31:18;;;;;;;10.50;6.90;;;;;;;35.98;44.73;96273.75;108531;1268;25302;-79
2022/08/20 08:33:47;;;;;;;10.00;6.80;;;;;;;36.50;44.33;96272.86;108519;1268;22475;-79
2022/08/20 08:36:17;;;;;;;9.90;6.90;;;;;;;37.02;43.40;96276.29;108519;1268;24229;-78
2022/08/20 08:38:45;;;;;;;;;;;;;;;38.01;42.44;96272.50;108506;1268;26407;-80
2022/08/20 08:41:19;;;;;;;12.00;7.20;;;;;;;38.38;40.66;96271.55;108558;1267;22745;-82
2022/08/20 08:43:51;;;;;;;9.60;6.40;;;;;;;38.34;40.17;96271.27;108555;1268;22533;-83
2022/08/20 08:46:23;;;;;;;10.60;6.80;;;;;;;38.54;39.82;96268.67;108491;1267;24040;-84
2022/08/20 08:48:55;;;;;;;9.80;7.10;;;;;;;38.64;38.73;96269.39;108449;1266;25297;-82
2022/08/20 08:51:32;;;;;;;8.30;6.60;;;;;;;39.15;38.26;96266.19;108482;1268;23914;-81
2022/08/20 08:54:02;;;;;;;10.00;6.50;;;;;;;39.18;36.63;96266.86;108523;1267;22936;-83
2022/08/20 08:56:31;;;;;;;10.00;6.60;;;;;;;39.31;37.53;96268.36;108529;1268;25245;-84
2022/08/20 08:59:03;;;;;;;;;;;;;;;40.05;36.88;96266.60;108459;1268;35041;-86
2022/08/20 09:01:35;;;;;;;10.00;6.90;;;;;;;39.83;35.53;96262.00;108532;1268;22673;-78
2022/08/20 09:04:04;;;;;;;10.70;7.10;;;;;;;39.10;36.33;96255.19;108548;1268;22587;-76
2022/08/20 09:06:33;;;;;;;11.80;8.30;;;;;;;38.96;36.86;96252.40;108516;1267;24069;-77
2022/08/20 09:09:04;;;;;;;12.00;8.00;;;;;;;39.02;36.54;96247.74;108464;1267;40430;-85
2022/08/20 09:11:47;;;;;;;10.40;7.20;;;;;;;38.96;35.99;96246.77;108593;1268;23915;-78
2022/08/20 09:14:16;;;;;;;10.40;7.20;;;;;;;38.72;36.88;96240.89;108560;1267;22557;-79
2022/08/20 09:16:45;;;;;;;9.80;7.70;;;;;;;39.13;36.96;96233.74;108512;1268;22470;-82
2022/08/20 09:19:14;;;;;;;12.90;7.50;;;;;;;38.99;36.70;96232.85;108507;1266;25393;-83
2022/08/20 09:21:43;;;;;;;11.60;7.60;;;;;;;38.66;36.95;96224.95;108555;1268;22561;-77
2022/08/20 09:24:14;;;;;;;12.20;8.20;;;;;;;38.23;37.31;96219.50;108566;1268;23114;-76
2022/08/20 09:26:43;;;;;;;10.70;8.00;;;;;;;37.40;37.00;96216.11;108543;1267;22964;-79
2022/08/20 09:29:14;;;;;;;14.00;8.70;;;;;;;36.57;38.45;96212.13;108491;1267;22994;-84
2022/08/20 09:31:43;;;;;;;13.30;9.00;;;;;;;36.09;39.45;96205.34;108567;1268;22485;-84
2022/08/20 09:34:14;;;;;;;9.60;7.90;;;;;;;35.48;40.10;96203.00;108554;1268;24186;-80
2022/08/20 09:36:41;;;;;;;;;;;;;;;35.23;40.72;96200.36;108577;1268;22514;-77
2022/08/20 09:39:11;;;;;;;10.90;7.90;;;;;;;34.97;40.77;96199.49;108471;1266;73638;-76
2022/08/20 09:41:39;;;;;;;;;;;;;;;34.67;41.68;96206.36;108578;1267;23379;-77
2022/08/20 09:44:09;;;;;;;9.30;7.20;;;;;;;34.17;41.19;96208.48;108521;1267;22560;-76
2022/08/20 09:46:38;;;;;;;11.70;8.00;;;;;;;33.22;42.05;96202.58;108568;1268;23026;-76
2022/08/20 09:49:06;;;;;;;11.10;7.80;;;;;;;32.83;43.81;96201.47;108456;1267;28278;-79
2022/08/20 09:51:35;;;;;;;12.30;7.20;;;;;;;32.85;44.09;96200.02;108521;1267;23730;-83
2022/08/20 09:54:04;;;;;;;13.60;7.10;;;;;;;32.91;44.35;96199.83;108578;1268;23965;-79
2022/08/20 09:56:35;;;;;;;12.30;7.50;;;;;;;32.96;44.73;96198.68;108479;1267;23937;-80
2022/08/20 09:59:03;;;;;;;11.50;7.80;;;;;;;33.08;44.59;96201.23;108474;1268;32815;-76
2022/08/20 10:01:32;;;;;;;14.20;9.00;;;;;;;32.92;44.14;96201.85;108532;1267;22534;-79
2022/08/20 10:04:01;;;;;;;20.30;10.90;;;;;;;32.41;43.96;96198.48;108554;1267;23462;-80
2022/08/20 10:06:30;;;;;;;16.50;10.40;;;;;;;32.07;44.23;96200.56;108561;1267;25446;-79
2022/08/20 10:08:59;;;;;;;13.30;8.80;;;;;;;31.80;44.31;96203.61;108508;1268;29978;-77
2022/08/20 10:11:28;;;;;;;12.50;8.00;;;;;;;31.46;44.65;96208.05;108556;1268;22559;-79
2022/08/20 10:13:57;;;;;;;13.10;9.10;;;;;;;31.31;44.65;96215.23;108562;1265;22554;-79
2022/08/20 10:16:26;;;;;;;42.10;18.40;;;;;;;31.05;45.12;96214.65;108599;1268;22586;-77
2022/08/20 10:18:56;;;;;;;9.90;7.90;;;;;;;30.93;45.33;96211.98;108534;1268;23867;-78
2022/08/20 10:21:25;;;;;;;10.80;7.30;;;;;;;30.58;46.03;96206.94;108597;1268;22532;-78
2022/08/20 10:23:55;;;;;;;11.40;8.60;;;;;;;30.17;46.07;96206.83;108605;1267;22543;-78
2022/08/20 10:26:25;;;;;;;10.00;7.10;;;;;;;30.12;47.10;96206.86;108556;1268;22527;-83
2022/08/20 10:28:54;;;;;;;9.90;7.30;;;;;;;30.09;47.01;96206.27;108508;1268;39880;-81
2022/08/20 10:31:23;;;;;;;16.30;8.50;;;;;;;30.09;47.30;96205.17;107199;1268;1835136;-80
2022/08/20 10:33:53;;;;;;;8.50;7.60;;;;;;;29.88;47.10;96203.23;108647;1267;22646;-79
2022/08/20 10:36:22;;;;;;;12.40;7.50;;;;;;;29.82;47.20;96201.91;108611;1267;23727;-80
2022/08/20 10:38:51;;;;;;;12.10;7.90;;;;;;;29.92;47.59;96194.05;108546;1267;26067;-80
2022/08/20 10:41:21;;;;;;;12.00;7.90;;;;;;;29.82;47.82;96191.69;108604;1268;22522;-81
2022/08/20 10:43:50;;;;;;;12.40;7.70;;;;;;;29.94;47.87;96187.20;108586;1267;25225;-82
2022/08/20 10:46:18;;;;;;;15.30;8.40;;;;;;;30.06;47.89;96187.95;108666;1268;22545;-83
2022/08/20 10:48:47;;;;;;;34.60;16.80;;;;;;;30.32;48.36;96185.98;108405;1268;46415;-85
2022/08/20 10:51:15;;;;;;;12.50;8.40;;;;;;;30.71;48.71;96184.83;108598;1266;22574;-83
2022/08/20 10:53:45;;;;;;;11.40;7.70;;;;;;;30.97;47.63;96188.54;108632;1265;22954;-82
2022/08/20 10:56:14;;;;;;;9.00;7.70;;;;;;;31.05;47.29;96184.61;108590;1268;22530;-73
2022/08/20 10:58:43;;;;;;;13.60;8.70;;;;;;;31.00;46.01;96191.06;108519;1267;37228;-81
2022/08/20 11:01:11;;;;;;;9.40;7.20;;;;;;;30.74;46.08;96184.69;108612;1268;22644;-81
2022/08/20 11:03:40;;;;;;;9.30;6.90;;;;;;;30.47;46.03;96184.75;108577;1267;23249;-84
2022/08/20 11:06:09;;;;;;;8.30;6.50;;;;;;;30.23;45.10;96177.77;108617;1268;22538;-84
2022/08/20 11:08:38;;;;;;;8.10;6.10;;;;;;;29.81;45.33;96168.42;108588;1268;28595;-80
2022/08/20 11:11:07;;;;;;;19.70;9.90;;;;;;;29.60;46.27;96162.84;108580;1267;22479;-81
2022/08/20 11:13:36;;;;;;;13.70;8.80;;;;;;;29.72;46.66;96157.88;108594;1268;22543;-80
2022/08/20 11:16:06;;;;;;;8.80;6.50;;;;;;;29.88;46.91;96154.65;108566;1268;24227;-79
2022/08/20 11:18:34;;;;;;;;;;;;;;;30.06;46.07;96147.59;108506;1267;39836;-83
2022/08/20 11:21:03;;;;;;;8.40;6.00;;;;;;;29.96;44.62;96141.58;108532;1267;22549;-80
2022/08/20 11:23:32;;;;;;;9.60;7.20;;;;;;;29.82;45.26;96137.65;108526;1265;25372;-79
2022/08/20 11:26:01;;;;;;;8.80;7.20;;;;;;;30.03;46.18;96137.95;108545;1268;22548;-79
2022/08/20 11:28:31;;;;;;;8.90;6.80;;;;;;;30.35;46.25;96135.91;108495;1268;39276;-80
2022/08/20 11:31:02;;;;;;;9.10;6.60;;;;;;;30.70;46.14;96138.07;108564;1268;25202;-79
2022/08/20 11:33:32;;;;;;;7.60;6.70;;;;;;;30.86;44.83;96135.51;108579;1268;24226;-80
2022/08/20 11:36:01;;;;;;;7.90;6.10;;;;;;;30.85;43.76;96135.12;108566;1268;22586;-80